sensor_id;sensor_type;location;lat;lon;timestamp;temperature;humidity
40291;DHT22;26000;48.304;13.626;2022-07-22T00:01:00;22.30;99.90
40291;DHT22;26000;48.304;13.626;2022-07-22T00:03:26;22.30;99.90
40291;DHT22;26000;48.304;13.626;2022-07-22T00:05:52;22.30;99.90
40291;DHT22;26000;48.304;13.626;2022-07-22T00:08:17;22.20;99.90
40291;DHT22;26000;48.304;13.626;2022-07-22T00:10:43;22.20;99.90
40291;DHT22;26000;48.304;13.626;2022-07-22T00:13:09;22.20;99.90
40291;DHT22;26000;48.304;13.626;2022-07-22T00:15:35;22.20;99.90
40291;DHT22;26000;48.304;13.626;2022-07-22T00:18:00;22.00;99.90
40291;DHT22;26000;48.304;13.626;2022-07-22T00:20:26;22.00;99.90
40291;DHT22;26000;48.304;13.626;2022-07-22T00:22:52;22.00;99.90
40291;DHT22;26000;48.304;13.626;2022-07-22T00:25:18;22.00;99.90
40291;DHT22;26000;48.304;13.626;2022-07-22T00:27:43;21.90;99.90
40291;DHT22;26000;48.304;13.626;2022-07-22T00:30:09;21.90;99.90
40291;DHT22;26000;48.304;13.626;2022-07-22T00:32:35;21.90;99.90
40291;DHT22;26000;48.304;13.626;2022-07-22T00:35:01;21.80;99.90
40291;DHT22;26000;48.304;13.626;2022-07-22T00:37:26;21.80;99.90
40291;DHT22;26000;48.304;13.626;2022-07-22T00:39:52;21.80;99.90
40291;DHT22;26000;48.304;13.626;2022-07-22T00:42:18;21.80;99.90
40291;DHT22;26000;48.304;13.626;2022-07-22T00:44:43;21.70;99.90
40291;DHT22;26000;48.304;13.626;2022-07-22T00:47:11;21.70;99.90
40291;DHT22;26000;48.304;13.626;2022-07-22T00:49:37;21.60;99.90
40291;DHT22;26000;48.304;13.626;2022-07-22T00:52:03;21.60;99.90
40291;DHT22;26000;48.304;13.626;2022-07-22T00:54:30;21.60;99.90
40291;DHT22;26000;48.304;13.626;2022-07-22T00:56:56;21.50;99.90
40291;DHT22;26000;48.304;13.626;2022-07-22T00:59:21;21.50;99.90
40291;DHT22;26000;48.304;13.626;2022-07-22T01:01:47;21.50;99.90
40291;DHT22;26000;48.304;13.626;2022-07-22T01:04:13;21.30;99.90
40291;DHT22;26000;48.304;13.626;2022-07-22T01:06:39;21.40;99.90
40291;DHT22;26000;48.304;13.626;2022-07-22T01:09:05;21.40;99.90
40291;DHT22;26000;48.304;13.626;2022-07-22T01:11:30;21.30;99.90
40291;DHT22;26000;48.304;13.626;2022-07-22T01:13:56;21.40;99.90
40291;DHT22;26000;48.304;13.626;2022-07-22T01:16:23;21.40;99.90
40291;DHT22;26000;48.304;13.626;2022-07-22T01:18:49;21.40;99.90
40291;DHT22;26000;48.304;13.626;2022-07-22T01:21:16;21.40;99.90
40291;DHT22;26000;48.304;13.626;2022-07-22T01:23:42;21.30;99.90
40291;DHT22;26000;48.304;13.626;2022-07-22T01:26:08;21.30;99.90
40291;DHT22;26000;48.304;13.626;2022-07-22T01:28:34;21.30;99.90
40291;DHT22;26000;48.304;13.626;2022-07-22T01:31:00;21.30;99.90
40291;DHT22;26000;48.304;13.626;2022-07-22T01:33:26;21.20;99.90
40291;DHT22;26000;48.304;13.626;2022-07-22T01:35:52;21.10;99.90
40291;DHT22;26000;48.304;13.626;2022-07-22T01:38:17;21.00;99.90
40291;DHT22;26000;48.304;13.626;2022-07-22T01:40:44;21.10;99.90
40291;DHT22;26000;48.304;13.626;2022-07-22T01:43:10;20.90;99.90
40291;DHT22;26000;48.304;13.626;2022-07-22T01:45:36;20.90;99.90
40291;DHT22;26000;48.304;13.626;2022-07-22T01:48:03;20.90;99.90
40291;DHT22;26000;48.304;13.626;2022-07-22T01:50:29;20.80;99.90
40291;DHT22;26000;48.304;13.626;2022-07-22T01:52:55;20.70;99.90
40291;DHT22;26000;48.304;13.626;2022-07-22T01:55:21;20.80;99.90
40291;DHT22;26000;48.304;13.626;2022-07-22T01:57:47;20.60;99.90
40291;DHT22;26000;48.304;13.626;2022-07-22T02:00:13;20.70;99.90
40291;DHT22;26000;48.304;13.626;2022-07-22T02:02:39;20.70;99.90
40291;DHT22;26000;48.304;13.626;2022-07-22T02:05:06;20.70;99.90
40291;DHT22;26000;48.304;13.626;2022-07-22T02:07:32;20.70;99.90
40291;DHT22;26000;48.304;13.626;2022-07-22T02:09:58;20.60;99.90
40291;DHT22;26000;48.304;13.626;2022-07-22T02:12:24;20.60;99.90
40291;DHT22;26000;48.304;13.626;2022-07-22T02:14:50;20.50;99.90
40291;DHT22;26000;48.304;13.626;2022-07-22T02:17:15;20.60;99.90
40291;DHT22;26000;48.304;13.626;2022-07-22T02:19:41;20.50;99.90
40291;DHT22;26000;48.304;13.626;2022-07-22T02:22:07;20.40;99.90
40291;DHT22;26000;48.304;13.626;2022-07-22T02:24:33;20.40;99.90
40291;DHT22;26000;48.304;13.626;2022-07-22T02:26:59;20.40;99.90
40291;DHT22;26000;48.304;13.626;2022-07-22T02:29:25;20.40;99.90
40291;DHT22;26000;48.304;13.626;2022-07-22T02:31:51;20.40;99.90
40291;DHT22;26000;48.304;13.626;2022-07-22T02:34:17;20.40;99.90
40291;DHT22;26000;48.304;13.626;2022-07-22T02:36:43;20.40;99.90
40291;DHT22;26000;48.304;13.626;2022-07-22T02:39:08;20.40;99.90
40291;DHT22;26000;48.304;13.626;2022-07-22T02:41:34;20.40;99.90
40291;DHT22;26000;48.304;13.626;2022-07-22T02:44:00;20.30;99.90
40291;DHT22;26000;48.304;13.626;2022-07-22T02:46:26;20.30;99.90
40291;DHT22;26000;48.304;13.626;2022-07-22T02:48:54;20.30;99.90
40291;DHT22;26000;48.304;13.626;2022-07-22T02:51:20;20.30;99.90
40291;DHT22;26000;48.304;13.626;2022-07-22T02:53:46;20.30;99.90
40291;DHT22;26000;48.304;13.626;2022-07-22T02:56:12;20.30;99.90
40291;DHT22;26000;48.304;13.626;2022-07-22T02:58:39;20.30;99.90
40291;DHT22;26000;48.304;13.626;2022-07-22T03:01:05;20.30;99.90
40291;DHT22;26000;48.304;13.626;2022-07-22T03:03:30;20.30;99.90
40291;DHT22;26000;48.304;13.626;2022-07-22T03:05:56;20.40;99.90
40291;DHT22;26000;48.304;13.626;2022-07-22T03:08:22;20.40;99.90
40291;DHT22;26000;48.304;13.626;2022-07-22T03:10:48;20.30;99.90
40291;DHT22;26000;48.304;13.626;2022-07-22T03:13:14;20.40;99.90
40291;DHT22;26000;48.304;13.626;2022-07-22T03:15:39;20.40;99.90
40291;DHT22;26000;48.304;13.626;2022-07-22T03:18:05;20.30;99.90
40291;DHT22;26000;48.304;13.626;2022-07-22T03:20:31;20.30;99.90
40291;DHT22;26000;48.304;13.626;2022-07-22T03:22:58;20.20;99.90
40291;DHT22;26000;48.304;13.626;2022-07-22T03:25:24;20.20;99.90
40291;DHT22;26000;48.304;13.626;2022-07-22T03:27:50;20.30;99.90
40291;DHT22;26000;48.304;13.626;2022-07-22T03:30:16;20.20;99.90
40291;DHT22;26000;48.304;13.626;2022-07-22T03:32:41;20.10;99.90
40291;DHT22;26000;48.304;13.626;2022-07-22T03:35:12;20.00;99.90
40291;DHT22;26000;48.304;13.626;2022-07-22T03:37:38;20.00;99.90
40291;DHT22;26000;48.304;13.626;2022-07-22T03:40:04;20.00;99.90
40291;DHT22;26000;48.304;13.626;2022-07-22T03:42:30;20.00;99.90
40291;DHT22;26000;48.304;13.626;2022-07-22T03:44:56;20.00;99.90
40291;DHT22;26000;48.304;13.626;2022-07-22T03:47:22;19.80;99.90
40291;DHT22;26000;48.304;13.626;2022-07-22T03:49:49;19.80;99.90
40291;DHT22;26000;48.304;13.626;2022-07-22T03:52:14;19.80;99.90
40291;DHT22;26000;48.304;13.626;2022-07-22T03:54:41;19.90;99.90
40291;DHT22;26000;48.304;13.626;2022-07-22T03:57:07;19.90;99.90
40291;DHT22;26000;48.304;13.626;2022-07-22T03:59:33;20.00;99.90
40291;DHT22;26000;48.304;13.626;2022-07-22T04:01:59;20.10;99.90
40291;DHT22;26000;48.304;13.626;2022-07-22T04:04:24;20.20;99.90
40291;DHT22;26000;48.304;13.626;2022-07-22T04:06:50;20.30;99.90
40291;DHT22;26000;48.304;13.626;2022-07-22T04:09:19;20.50;99.90
40291;DHT22;26000;48.304;13.626;2022-07-22T04:11:45;20.90;99.90
40291;DHT22;26000;48.304;13.626;2022-07-22T04:14:11;21.30;99.90
40291;DHT22;26000;48.304;13.626;2022-07-22T04:16:36;21.60;99.90
40291;DHT22;26000;48.304;13.626;2022-07-22T04:19:03;21.90;99.90
40291;DHT22;26000;48.304;13.626;2022-07-22T04:21:29;22.10;99.90
40291;DHT22;26000;48.304;13.626;2022-07-22T04:23:55;22.40;99.90
40291;DHT22;26000;48.304;13.626;2022-07-22T04:26:21;22.70;99.90
40291;DHT22;26000;48.304;13.626;2022-07-22T04:28:47;22.90;99.90
40291;DHT22;26000;48.304;13.626;2022-07-22T04:31:13;23.10;99.90
40291;DHT22;26000;48.304;13.626;2022-07-22T04:33:39;22.90;99.90
40291;DHT22;26000;48.304;13.626;2022-07-22T04:36:05;23.00;99.90
40291;DHT22;26000;48.304;13.626;2022-07-22T04:38:30;23.10;99.90
40291;DHT22;26000;48.304;13.626;2022-07-22T04:40:56;23.20;99.90
40291;DHT22;26000;48.304;13.626;2022-07-22T04:43:22;23.00;99.90
40291;DHT22;26000;48.304;13.626;2022-07-22T04:45:48;22.70;99.90
40291;DHT22;26000;48.304;13.626;2022-07-22T04:48:15;22.40;99.90
40291;DHT22;26000;48.304;13.626;2022-07-22T04:50:41;22.30;99.90
40291;DHT22;26000;48.304;13.626;2022-07-22T04:53:06;22.20;99.90
40291;DHT22;26000;48.304;13.626;2022-07-22T04:55:32;22.10;99.90
40291;DHT22;26000;48.304;13.626;2022-07-22T04:57:57;22.00;99.90
40291;DHT22;26000;48.304;13.626;2022-07-22T05:00:23;22.00;99.90
40291;DHT22;26000;48.304;13.626;2022-07-22T05:02:50;22.00;99.90
40291;DHT22;26000;48.304;13.626;2022-07-22T05:05:16;21.90;99.90
40291;DHT22;26000;48.304;13.626;2022-07-22T05:07:42;21.90;99.90
40291;DHT22;26000;48.304;13.626;2022-07-22T05:10:08;21.90;99.90
40291;DHT22;26000;48.304;13.626;2022-07-22T05:12:34;22.00;99.90
40291;DHT22;26000;48.304;13.626;2022-07-22T05:15:01;22.00;99.90
40291;DHT22;26000;48.304;13.626;2022-07-22T05:17:27;21.90;99.90
40291;DHT22;26000;48.304;13.626;2022-07-22T05:19:52;22.00;99.90
40291;DHT22;26000;48.304;13.626;2022-07-22T05:22:18;22.10;99.90
40291;DHT22;26000;48.304;13.626;2022-07-22T05:24:44;22.10;99.90
40291;DHT22;26000;48.304;13.626;2022-07-22T05:27:09;22.10;99.90
40291;DHT22;26000;48.304;13.626;2022-07-22T05:29:35;22.10;99.90
40291;DHT22;26000;48.304;13.626;2022-07-22T05:32:00;22.20;99.90
40291;DHT22;26000;48.304;13.626;2022-07-22T05:34:26;22.30;99.90
40291;DHT22;26000;48.304;13.626;2022-07-22T05:36:52;22.40;99.90
40291;DHT22;26000;48.304;13.626;2022-07-22T05:39:17;22.40;99.90
40291;DHT22;26000;48.304;13.626;2022-07-22T05:41:43;22.60;99.90
40291;DHT22;26000;48.304;13.626;2022-07-22T05:44:09;22.60;99.90
40291;DHT22;26000;48.304;13.626;2022-07-22T05:46:34;22.70;99.90
40291;DHT22;26000;48.304;13.626;2022-07-22T05:49:00;22.70;99.90
40291;DHT22;26000;48.304;13.626;2022-07-22T05:51:26;22.70;99.90
40291;DHT22;26000;48.304;13.626;2022-07-22T05:53:51;22.80;99.90
40291;DHT22;26000;48.304;13.626;2022-07-22T05:56:17;22.90;99.90
40291;DHT22;26000;48.304;13.626;2022-07-22T05:58:43;23.00;99.90
40291;DHT22;26000;48.304;13.626;2022-07-22T06:01:10;23.20;99.90
40291;DHT22;26000;48.304;13.626;2022-07-22T06:03:35;23.30;99.90
40291;DHT22;26000;48.304;13.626;2022-07-22T06:06:01;23.60;99.90
40291;DHT22;26000;48.304;13.626;2022-07-22T06:08:30;23.70;99.90
40291;DHT22;26000;48.304;13.626;2022-07-22T06:10:59;23.70;99.90
40291;DHT22;26000;48.304;13.626;2022-07-22T06:13:25;23.80;99.90
40291;DHT22;26000;48.304;13.626;2022-07-22T06:15:51;24.00;99.90
40291;DHT22;26000;48.304;13.626;2022-07-22T06:18:17;24.20;99.90
40291;DHT22;26000;48.304;13.626;2022-07-22T06:20:43;24.50;99.90
40291;DHT22;26000;48.304;13.626;2022-07-22T06:23:09;24.40;99.90
40291;DHT22;26000;48.304;13.626;2022-07-22T06:25:35;24.30;99.90
40291;DHT22;26000;48.304;13.626;2022-07-22T06:28:00;24.40;99.90
40291;DHT22;26000;48.304;13.626;2022-07-22T06:30:26;24.40;99.90
40291;DHT22;26000;48.304;13.626;2022-07-22T06:32:52;24.60;99.90
40291;DHT22;26000;48.304;13.626;2022-07-22T06:35:18;24.50;99.90
40291;DHT22;26000;48.304;13.626;2022-07-22T06:37:43;25.00;99.90
40291;DHT22;26000;48.304;13.626;2022-07-22T06:40:10;25.20;99.90
40291;DHT22;26000;48.304;13.626;2022-07-22T06:42:35;25.40;99.90
40291;DHT22;26000;48.304;13.626;2022-07-22T06:45:01;25.70;99.90
40291;DHT22;26000;48.304;13.626;2022-07-22T06:47:27;25.90;99.90
40291;DHT22;26000;48.304;13.626;2022-07-22T06:49:52;25.90;99.90
40291;DHT22;26000;48.304;13.626;2022-07-22T06:52:18;25.90;99.90
40291;DHT22;26000;48.304;13.626;2022-07-22T06:54:44;26.10;99.90
40291;DHT22;26000;48.304;13.626;2022-07-22T06:57:09;26.10;99.90
40291;DHT22;26000;48.304;13.626;2022-07-22T06:59:35;26.00;99.90
40291;DHT22;26000;48.304;13.626;2022-07-22T07:02:00;25.90;99.90
40291;DHT22;26000;48.304;13.626;2022-07-22T07:04:26;26.10;99.90
40291;DHT22;26000;48.304;13.626;2022-07-22T07:06:52;26.60;99.90
40291;DHT22;26000;48.304;13.626;2022-07-22T07:09:17;27.00;99.90
40291;DHT22;26000;48.304;13.626;2022-07-22T07:11:43;27.50;99.90
40291;DHT22;26000;48.304;13.626;2022-07-22T07:14:08;27.60;99.90
40291;DHT22;26000;48.304;13.626;2022-07-22T07:16:34;27.90;99.90
40291;DHT22;26000;48.304;13.626;2022-07-22T07:19:00;28.20;99.70
40291;DHT22;26000;48.304;13.626;2022-07-22T07:21:26;28.40;99.90
40291;DHT22;26000;48.304;13.626;2022-07-22T07:23:51;28.60;99.50
40291;DHT22;26000;48.304;13.626;2022-07-22T07:26:17;28.70;99.00
40291;DHT22;26000;48.304;13.626;2022-07-22T07:28:42;29.00;98.70
40291;DHT22;26000;48.304;13.626;2022-07-22T07:31:08;29.20;98.90
40291;DHT22;26000;48.304;13.626;2022-07-22T07:33:34;29.50;97.50
40291;DHT22;26000;48.304;13.626;2022-07-22T07:36:00;29.60;97.40
40291;DHT22;26000;48.304;13.626;2022-07-22T07:38:26;29.50;96.80
40291;DHT22;26000;48.304;13.626;2022-07-22T07:40:52;29.50;97.30
40291;DHT22;26000;48.304;13.626;2022-07-22T07:43:18;29.50;96.70
40291;DHT22;26000;48.304;13.626;2022-07-22T07:45:45;29.40;96.70
40291;DHT22;26000;48.304;13.626;2022-07-22T07:48:11;29.60;96.40
40291;DHT22;26000;48.304;13.626;2022-07-22T07:50:37;29.90;96.30
40291;DHT22;26000;48.304;13.626;2022-07-22T07:53:02;29.80;95.60
40291;DHT22;26000;48.304;13.626;2022-07-22T07:55:28;29.40;95.50
40291;DHT22;26000;48.304;13.626;2022-07-22T07:57:54;29.70;95.40
40291;DHT22;26000;48.304;13.626;2022-07-22T08:00:22;29.50;95.70
40291;DHT22;26000;48.304;13.626;2022-07-22T08:02:48;29.80;95.60
40291;DHT22;26000;48.304;13.626;2022-07-22T08:05:14;29.70;96.20
40291;DHT22;26000;48.304;13.626;2022-07-22T08:07:40;30.10;96.10
40291;DHT22;26000;48.304;13.626;2022-07-22T08:10:07;30.40;95.60
40291;DHT22;26000;48.304;13.626;2022-07-22T08:12:33;30.50;94.70
40291;DHT22;26000;48.304;13.626;2022-07-22T08:14:59;30.60;94.80
40291;DHT22;26000;48.304;13.626;2022-07-22T08:17:24;30.60;95.20
40291;DHT22;26000;48.304;13.626;2022-07-22T08:19:50;30.70;94.80
40291;DHT22;26000;48.304;13.626;2022-07-22T08:22:15;30.90;94.70
40291;DHT22;26000;48.304;13.626;2022-07-22T08:24:41;30.90;94.50
40291;DHT22;26000;48.304;13.626;2022-07-22T08:27:07;30.90;94.70
40291;DHT22;26000;48.304;13.626;2022-07-22T08:29:32;31.00;93.50
40291;DHT22;26000;48.304;13.626;2022-07-22T08:31:58;31.10;92.50
40291;DHT22;26000;48.304;13.626;2022-07-22T08:34:24;31.10;92.30
40291;DHT22;26000;48.304;13.626;2022-07-22T08:36:49;31.20;92.30
40291;DHT22;26000;48.304;13.626;2022-07-22T08:39:15;31.50;91.90
40291;DHT22;26000;48.304;13.626;2022-07-22T08:41:41;31.00;91.90
40291;DHT22;26000;48.304;13.626;2022-07-22T08:44:08;31.00;91.40
40291;DHT22;26000;48.304;13.626;2022-07-22T08:46:34;31.20;90.20
40291;DHT22;26000;48.304;13.626;2022-07-22T08:49:00;31.30;90.70
40291;DHT22;26000;48.304;13.626;2022-07-22T08:51:27;31.50;91.60
40291;DHT22;26000;48.304;13.626;2022-07-22T08:53:54;31.80;91.90
40291;DHT22;26000;48.304;13.626;2022-07-22T08:56:20;32.00;90.80
40291;DHT22;26000;48.304;13.626;2022-07-22T08:58:46;32.00;89.60
40291;DHT22;26000;48.304;13.626;2022-07-22T09:01:13;31.80;90.00
40291;DHT22;26000;48.304;13.626;2022-07-22T09:03:52;32.00;89.10
40291;DHT22;26000;48.304;13.626;2022-07-22T09:06:19;32.10;90.00
40291;DHT22;26000;48.304;13.626;2022-07-22T09:08:59;32.10;89.00
40291;DHT22;26000;48.304;13.626;2022-07-22T09:11:27;32.20;89.00
40291;DHT22;26000;48.304;13.626;2022-07-22T09:13:58;32.30;87.50
40291;DHT22;26000;48.304;13.626;2022-07-22T09:16:45;32.40;87.00
40291;DHT22;26000;48.304;13.626;2022-07-22T09:19:11;32.40;89.10
40291;DHT22;26000;48.304;13.626;2022-07-22T09:21:40;32.60;85.90
40291;DHT22;26000;48.304;13.626;2022-07-22T09:24:06;32.80;87.50
40291;DHT22;26000;48.304;13.626;2022-07-22T09:26:34;33.00;88.50
40291;DHT22;26000;48.304;13.626;2022-07-22T09:29:00;33.00;87.70
40291;DHT22;26000;48.304;13.626;2022-07-22T09:31:33;33.20;85.00
40291;DHT22;26000;48.304;13.626;2022-07-22T09:34:00;33.10;82.80
40291;DHT22;26000;48.304;13.626;2022-07-22T09:36:26;33.00;81.80
40291;DHT22;26000;48.304;13.626;2022-07-22T09:38:53;32.70;80.00
40291;DHT22;26000;48.304;13.626;2022-07-22T09:41:19;32.60;79.30
40291;DHT22;26000;48.304;13.626;2022-07-22T09:43:45;32.70;80.20
40291;DHT22;26000;48.304;13.626;2022-07-22T09:46:11;32.30;77.30
40291;DHT22;26000;48.304;13.626;2022-07-22T09:48:38;32.20;76.40
40291;DHT22;26000;48.304;13.626;2022-07-22T09:51:05;32.20;76.80
40291;DHT22;26000;48.304;13.626;2022-07-22T09:53:31;32.30;79.40
40291;DHT22;26000;48.304;13.626;2022-07-22T09:55:59;32.40;78.40
40291;DHT22;26000;48.304;13.626;2022-07-22T09:58:25;32.40;77.40
40291;DHT22;26000;48.304;13.626;2022-07-22T10:00:52;32.70;77.20
40291;DHT22;26000;48.304;13.626;2022-07-22T10:03:35;32.80;77.20
40291;DHT22;26000;48.304;13.626;2022-07-22T10:06:04;32.40;78.10
40291;DHT22;26000;48.304;13.626;2022-07-22T10:08:31;32.40;77.80
40291;DHT22;26000;48.304;13.626;2022-07-22T10:11:04;32.70;78.10
40291;DHT22;26000;48.304;13.626;2022-07-22T10:13:30;32.90;76.60
40291;DHT22;26000;48.304;13.626;2022-07-22T10:15:57;32.60;76.70
40291;DHT22;26000;48.304;13.626;2022-07-22T10:18:23;33.00;77.90
40291;DHT22;26000;48.304;13.626;2022-07-22T10:21:02;33.00;76.20
40291;DHT22;26000;48.304;13.626;2022-07-22T10:23:29;33.30;78.90
40291;DHT22;26000;48.304;13.626;2022-07-22T10:25:55;33.30;76.70
40291;DHT22;26000;48.304;13.626;2022-07-22T10:30:53;32.80;76.60
40291;DHT22;26000;48.304;13.626;2022-07-22T10:33:20;32.90;77.20
40291;DHT22;26000;48.304;13.626;2022-07-22T10:35:57;33.00;79.10
40291;DHT22;26000;48.304;13.626;2022-07-22T10:38:24;33.20;79.10
40291;DHT22;26000;48.304;13.626;2022-07-22T10:43:46;33.00;76.40
40291;DHT22;26000;48.304;13.626;2022-07-22T10:46:12;33.00;75.70
40291;DHT22;26000;48.304;13.626;2022-07-22T10:51:13;32.60;75.20
40291;DHT22;26000;48.304;13.626;2022-07-22T10:58:52;32.70;74.30
40291;DHT22;26000;48.304;13.626;2022-07-22T11:01:21;32.50;75.60
40291;DHT22;26000;48.304;13.626;2022-07-22T11:03:49;32.40;77.30
40291;DHT22;26000;48.304;13.626;2022-07-22T11:06:25;32.50;76.50
40291;DHT22;26000;48.304;13.626;2022-07-22T11:09:00;32.30;76.40
40291;DHT22;26000;48.304;13.626;2022-07-22T11:14:00;32.20;75.60
40291;DHT22;26000;48.304;13.626;2022-07-22T11:16:27;31.90;76.40
40291;DHT22;26000;48.304;13.626;2022-07-22T11:19:02;31.90;75.60
40291;DHT22;26000;48.304;13.626;2022-07-22T11:21:32;31.90;76.10
40291;DHT22;26000;48.304;13.626;2022-07-22T11:24:00;31.60;76.00
40291;DHT22;26000;48.304;13.626;2022-07-22T11:26:40;31.50;76.40
40291;DHT22;26000;48.304;13.626;2022-07-22T11:29:07;31.60;77.10
40291;DHT22;26000;48.304;13.626;2022-07-22T11:31:33;31.70;76.30
40291;DHT22;26000;48.304;13.626;2022-07-22T11:34:13;31.90;76.00
40291;DHT22;26000;48.304;13.626;2022-07-22T11:36:42;31.80;76.00
40291;DHT22;26000;48.304;13.626;2022-07-22T11:39:10;31.60;75.80
40291;DHT22;26000;48.304;13.626;2022-07-22T11:41:42;31.60;76.70
40291;DHT22;26000;48.304;13.626;2022-07-22T11:44:08;31.60;77.30
40291;DHT22;26000;48.304;13.626;2022-07-22T11:46:39;31.40;77.10
40291;DHT22;26000;48.304;13.626;2022-07-22T11:49:06;31.50;77.90
40291;DHT22;26000;48.304;13.626;2022-07-22T11:51:33;31.60;76.40
40291;DHT22;26000;48.304;13.626;2022-07-22T11:53:59;31.60;76.70
40291;DHT22;26000;48.304;13.626;2022-07-22T11:56:26;31.60;77.20
40291;DHT22;26000;48.304;13.626;2022-07-22T11:58:53;31.30;75.50
40291;DHT22;26000;48.304;13.626;2022-07-22T12:01:27;31.20;75.70
40291;DHT22;26000;48.304;13.626;2022-07-22T12:03:59;31.20;78.20
40291;DHT22;26000;48.304;13.626;2022-07-22T12:06:26;31.00;77.70
40291;DHT22;26000;48.304;13.626;2022-07-22T12:09:02;31.00;77.30
40291;DHT22;26000;48.304;13.626;2022-07-22T12:11:29;30.90;77.00
40291;DHT22;26000;48.304;13.626;2022-07-22T12:13:55;30.80;77.10
40291;DHT22;26000;48.304;13.626;2022-07-22T12:16:28;30.70;75.90
40291;DHT22;26000;48.304;13.626;2022-07-22T12:18:55;30.80;76.40
40291;DHT22;26000;48.304;13.626;2022-07-22T12:21:22;30.90;77.80
40291;DHT22;26000;48.304;13.626;2022-07-22T12:23:56;31.00;76.50
40291;DHT22;26000;48.304;13.626;2022-07-22T12:26:55;31.00;74.90
40291;DHT22;26000;48.304;13.626;2022-07-22T12:29:27;30.80;76.20
40291;DHT22;26000;48.304;13.626;2022-07-22T12:31:58;30.90;75.70
40291;DHT22;26000;48.304;13.626;2022-07-22T12:34:45;31.00;75.90
40291;DHT22;26000;48.304;13.626;2022-07-22T12:37:22;31.00;76.50
40291;DHT22;26000;48.304;13.626;2022-07-22T12:42:21;31.10;77.00
40291;DHT22;26000;48.304;13.626;2022-07-22T12:44:52;31.00;76.50
40291;DHT22;26000;48.304;13.626;2022-07-22T12:52:59;30.90;76.80
40291;DHT22;26000;48.304;13.626;2022-07-22T12:55:26;30.90;76.80
40291;DHT22;26000;48.304;13.626;2022-07-22T12:57:52;30.60;75.90
40291;DHT22;26000;48.304;13.626;2022-07-22T13:00:20;30.70;77.30
40291;DHT22;26000;48.304;13.626;2022-07-22T13:02:46;30.60;75.80
40291;DHT22;26000;48.304;13.626;2022-07-22T13:05:12;30.60;76.60
40291;DHT22;26000;48.304;13.626;2022-07-22T13:07:39;30.70;78.10
40291;DHT22;26000;48.304;13.626;2022-07-22T13:10:06;30.70;77.70
40291;DHT22;26000;48.304;13.626;2022-07-22T13:12:32;30.70;78.00
40291;DHT22;26000;48.304;13.626;2022-07-22T13:14:57;30.80;77.50
40291;DHT22;26000;48.304;13.626;2022-07-22T13:17:23;30.70;78.50
40291;DHT22;26000;48.304;13.626;2022-07-22T13:19:48;30.60;77.80
40291;DHT22;26000;48.304;13.626;2022-07-22T13:22:14;30.70;79.60
40291;DHT22;26000;48.304;13.626;2022-07-22T13:24:40;30.80;79.80
40291;DHT22;26000;48.304;13.626;2022-07-22T13:27:05;30.80;78.10
40291;DHT22;26000;48.304;13.626;2022-07-22T13:29:31;30.90;77.60
40291;DHT22;26000;48.304;13.626;2022-07-22T13:31:56;30.90;76.60
40291;DHT22;26000;48.304;13.626;2022-07-22T13:34:22;30.70;76.10
40291;DHT22;26000;48.304;13.626;2022-07-22T13:36:48;30.80;76.00
40291;DHT22;26000;48.304;13.626;2022-07-22T13:39:13;30.70;76.60
40291;DHT22;26000;48.304;13.626;2022-07-22T13:41:39;30.70;77.70
40291;DHT22;26000;48.304;13.626;2022-07-22T13:44:04;30.60;76.10
40291;DHT22;26000;48.304;13.626;2022-07-22T13:46:34;30.60;75.70
40291;DHT22;26000;48.304;13.626;2022-07-22T13:49:00;30.70;76.00
40291;DHT22;26000;48.304;13.626;2022-07-22T13:51:26;30.80;75.90
40291;DHT22;26000;48.304;13.626;2022-07-22T13:53:51;30.90;77.60
40291;DHT22;26000;48.304;13.626;2022-07-22T13:56:17;30.90;76.80
40291;DHT22;26000;48.304;13.626;2022-07-22T13:58:43;30.80;75.80
40291;DHT22;26000;48.304;13.626;2022-07-22T14:01:09;30.70;75.80
40291;DHT22;26000;48.304;13.626;2022-07-22T14:03:36;30.70;76.00
40291;DHT22;26000;48.304;13.626;2022-07-22T14:06:02;30.60;76.10
40291;DHT22;26000;48.304;13.626;2022-07-22T14:08:28;30.70;76.50
40291;DHT22;26000;48.304;13.626;2022-07-22T14:10:53;30.60;76.80
40291;DHT22;26000;48.304;13.626;2022-07-22T14:13:19;30.70;77.50
40291;DHT22;26000;48.304;13.626;2022-07-22T14:15:45;30.70;76.20
40291;DHT22;26000;48.304;13.626;2022-07-22T14:18:10;30.70;77.10
40291;DHT22;26000;48.304;13.626;2022-07-22T14:20:36;30.80;77.00
40291;DHT22;26000;48.304;13.626;2022-07-22T14:23:02;30.70;76.70
40291;DHT22;26000;48.304;13.626;2022-07-22T14:25:31;30.70;76.00
40291;DHT22;26000;48.304;13.626;2022-07-22T14:27:57;30.80;76.00
40291;DHT22;26000;48.304;13.626;2022-07-22T14:30:22;30.80;76.00
40291;DHT22;26000;48.304;13.626;2022-07-22T14:32:48;30.80;76.70
40291;DHT22;26000;48.304;13.626;2022-07-22T14:35:14;30.80;75.80
40291;DHT22;26000;48.304;13.626;2022-07-22T14:37:40;30.80;76.20
40291;DHT22;26000;48.304;13.626;2022-07-22T14:40:06;30.80;76.70
40291;DHT22;26000;48.304;13.626;2022-07-22T14:42:31;30.60;76.80
40291;DHT22;26000;48.304;13.626;2022-07-22T14:44:57;30.60;77.50
40291;DHT22;26000;48.304;13.626;2022-07-22T14:47:23;30.50;78.20
40291;DHT22;26000;48.304;13.626;2022-07-22T14:49:48;30.60;79.10
40291;DHT22;26000;48.304;13.626;2022-07-22T14:52:14;30.60;78.50
40291;DHT22;26000;48.304;13.626;2022-07-22T14:54:39;30.70;78.30
40291;DHT22;26000;48.304;13.626;2022-07-22T14:57:05;30.70;78.50
40291;DHT22;26000;48.304;13.626;2022-07-22T14:59:31;30.70;78.50
40291;DHT22;26000;48.304;13.626;2022-07-22T15:01:56;30.80;79.50
40291;DHT22;26000;48.304;13.626;2022-07-22T15:04:22;30.70;79.30
40291;DHT22;26000;48.304;13.626;2022-07-22T15:06:47;30.70;80.20
40291;DHT22;26000;48.304;13.626;2022-07-22T15:09:13;30.70;79.90
40291;DHT22;26000;48.304;13.626;2022-07-22T15:11:39;30.60;78.00
40291;DHT22;26000;48.304;13.626;2022-07-22T15:14:04;30.60;79.20
40291;DHT22;26000;48.304;13.626;2022-07-22T15:16:31;30.70;79.90
40291;DHT22;26000;48.304;13.626;2022-07-22T15:18:57;30.70;79.40
40291;DHT22;26000;48.304;13.626;2022-07-22T15:21:22;30.70;80.30
40291;DHT22;26000;48.304;13.626;2022-07-22T15:23:48;30.70;79.20
40291;DHT22;26000;48.304;13.626;2022-07-22T15:26:14;30.60;79.60
40291;DHT22;26000;48.304;13.626;2022-07-22T15:28:40;30.60;79.90
40291;DHT22;26000;48.304;13.626;2022-07-22T15:31:06;30.70;80.20
40291;DHT22;26000;48.304;13.626;2022-07-22T15:33:32;30.70;80.20
40291;DHT22;26000;48.304;13.626;2022-07-22T15:35:58;30.70;80.90